Akraberg, Faroe Islands

6:15 AM WEST on July 11, 2014 (GMT +0100)
Vagar (EKVG) Elev 279 ft | 62.07 °N, 7.28 °W | Change Station

Current weather conditions updated 25 minutes ago

Mostly Cloudy
Mostly Cloudy
52 °F
Feels Like 52 °F
N
12
Wind Variable Wind from SE

Today is forecast to be Cooler than yesterday. Afternoon showers.

Today
High -- | Low -- °F
--% Chance of Precip.
Yesterday
High -- | Low -- °F
Precip. -- in
4:07 AM 10:55 PM
Waxing Gibbous, 98% visible
Pressure 30.06 in
Visibility 6.2 miles
Clouds Mostly Cloudy 1400 ft
Dew Point 46 °F
Humidity 82%
Rainfall 0.00 in
Snow Depth Not available.
UV 0 out of 12
Pollen Not available.
Air Quality Not available.
Flu Activity Not available.
METAR EKVG 110450Z AUTO 13010KT 9999NDV BKN014/// 11/08 Q1018 RMK OVC013/// WIND 850FT 14020KT

More Conditions Fewer Conditions

Pressure 30.06 in
Visibility 6.2 miles
Clouds Mostly Cloudy 1400 ft
Dew Point 46 °F
Humidity 82%
Rainfall 0.00 in
Snow Depth Not available.
UV 0 out of 12
Pollen Not available.
Air Quality Not available.
Flu Activity Not available.
METAR EKVG 110450Z AUTO 13010KT 9999NDV BKN014/// 11/08 Q1018 RMK OVC013/// WIND 850FT 14020KT

More Conditions Fewer Conditions

10-Day Weather Forecast

Almanac

Astronomy

Jul. 11, 2014 Rise Set
Actual Time 4:07 AM WEST 10:55 PM WEST
Civil Twilight 2:16 AM WEST 12:42 AM WEST
Nautical Twilight Sun does not rise Sun does not rise
Astronomical Twilight Sun does not rise Sun does not rise
Moon 9:22 PM WEST 3:31 AM WEST
Length of Visible Light 22h 26m
Length of Day
18h 47m
Tomorrow will be 3m 43s shorter.
Waxing Gibbous, 98% of the Moon is Illuminated
Today
Waxing Gibbous
Jul 12
Full
Jul 18
Last Quarter
Jul 26
New
Aug 3
First Quarter

Yesterday's Extremes

Country Highs Country Lows

Community

WunderPhotos

Upload Photos

1,732,397 photos uploaded!

Nearby

Snow Depth

Not available.

Earthquake Activity

City Distance Mag. Time & Date
No recent earthquake activity has been reported nearby.
Minimum magnitude displayed is 2.5.

Coastal Water Temperatures

Place Temperature
No Stations Reporting

Nearby Weather Stations

There are no personal weather stations in this area.